Time;durP1;ratioP1;P1;durP2;ratioP2;P2;SDS_P1;SDS_P2;PMS_P1;PMS_P2;Temp;Humidity;BMP_temperature;BMP_pressure;BME280_temperature;BME280_humidity;BME280_pressure;Samples;Min_cycle;Max_cycle;Signal;HPM_P1;HPM_P2
2024/01/06 00:02:07;;;;;;;;;;;;;;;16.66;49.95;100841.06;5075925;28;1909;-69
2024/01/06 00:04:33;;;;;;;;;;;;;;;16.20;49.75;100832.69;5075998;28;1067;-67
2024/01/06 00:06:59;;;;;;;;;;;;;;;17.51;48.76;100833.34;5075509;28;1359;-68
2024/01/06 00:09:24;;;;;;;;;;;;;;;16.83;49.89;100832.56;5076294;28;1198;-67
2024/01/06 00:11:50;;;;;;;;;;;;;;;16.43;49.32;100839.63;5075398;28;1186;-68
2024/01/06 00:14:15;;;;;;;;;;;;;;;16.18;48.73;100826.66;5076240;28;1063;-69
2024/01/06 00:16:41;;;;;;;;;;;;;;;15.95;48.36;100822.44;5075536;28;1151;-68
2024/01/06 00:19:06;;;;;;;;;;;;;;;15.82;48.06;100821.88;5075385;28;1067;-69
2024/01/06 00:21:32;;;;;;;;;;;;;;;17.27;49.41;100821.00;5076485;28;1906;-67
2024/01/06 00:23:58;;;;;;;;;;;;;;;16.48;50.27;100817.69;5073744;28;1060;-68
2024/01/06 00:26:24;;;;;;;;;;;;;;;16.17;49.53;100833.25;5079974;28;1155;-70
2024/01/06 00:28:50;;;;;;;;;;;;;;;15.97;48.79;100825.78;5079716;28;1038;-69
2024/01/06 00:31:19;;;;;;;;;;;;;;;15.84;48.19;100813.38;5079520;28;1150;-65
2024/01/06 00:33:45;;;;;;;;;;;;;;;16.90;49.50;100821.31;5079609;28;1015;-68
2024/01/06 00:36:10;;;;;;;;;;;;;;;16.85;49.94;100810.31;5066843;28;1094;-67
2024/01/06 00:38:36;;;;;;;;;;;;;;;16.34;49.65;100805.56;5067390;28;1399;-67
2024/01/06 00:41:01;;;;;;;;;;;;;;;16.08;48.73;100806.31;5073052;28;1196;-68
2024/01/06 00:43:27;;;;;;;;;;;;;;;17.49;49.03;100810.78;5071176;28;1980;-68
2024/01/06 00:45:53;;;;;;;;;;;;;;;16.63;49.90;100814.13;5079305;28;1062;-68
2024/01/06 00:48:18;;;;;;;;;;;;;;;16.18;49.49;100796.50;5079116;28;880;-67
2024/01/06 00:50:44;;;;;;;;;;;;;;;16.10;48.36;100795.06;5079394;28;1135;-72
2024/01/06 00:53:09;;;;;;;;;;;;;;;15.88;48.25;100795.31;5079466;28;1106;-72
2024/01/06 00:55:35;;;;;;;;;;;;;;;15.92;47.14;100796.38;5079207;28;1099;-73
2024/01/06 00:58:00;;;;;;;;;;;;;;;16.36;48.76;100798.72;5079278;28;1004;-67
2024/01/06 01:00:27;;;;;;;;;;;;;;;17.65;48.47;100782.16;5079125;28;861;-65
2024/01/06 01:02:52;;;;;;;;;;;;;;;16.73;49.95;100770.22;5079118;28;1977;-66
2024/01/06 01:05:18;;;;;;;;;;;;;;;16.22;49.69;100781.94;5078850;28;1088;-68
2024/01/06 01:07:44;;;;;;;;;;;;;;;16.12;48.67;100786.56;5078752;28;1147;-70
2024/01/06 01:10:09;;;;;;;;;;;;;;;15.90;47.90;100773.91;5079076;28;1245;-66
2024/01/06 01:12:35;;;;;;;;;;;;;;;15.79;47.44;100783.16;5059628;28;886;-68
2024/01/06 01:15:01;;;;;;;;;;;;;;;17.21;49.49;100775.41;5076976;28;1016;-68
2024/01/06 01:17:26;;;;;;;;;;;;;;;16.71;50.00;100780.63;5078651;28;1112;-70
2024/01/06 01:19:52;;;;;;;;;;;;;;;16.12;49.96;100773.69;5078931;28;1058;-69
2024/01/06 01:22:17;;;;;;;;;;;;;;;16.08;48.87;100765.19;5078910;28;1894;-69
2024/01/06 01:24:43;;;;;;;;;;;;;;;16.07;49.20;100760.81;5065092;28;1439;-69
2024/01/06 01:27:09;;;;;;;;;;;;;;;17.31;49.24;100749.84;5078785;28;1146;-69
2024/01/06 01:29:34;;;;;;;;;;;;;;;16.39;49.86;100750.69;5078511;28;1036;-69
2024/01/06 01:32:00;;;;;;;;;;;;;;;16.03;49.33;100751.47;5078951;28;1040;-71
2024/01/06 01:34:25;;;;;;;;;;;;;;;15.84;48.38;100745.66;5077535;28;1178;-71
2024/01/06 01:36:51;;;;;;;;;;;;;;;15.79;47.62;100736.56;5078575;28;1050;-72
2024/01/06 01:39:17;;;;;;;;;;;;;;;16.71;49.48;100735.91;5079024;28;1028;-71
2024/01/06 01:41:42;;;;;;;;;;;;;;;16.37;50.12;100729.03;5067395;28;1906;-71
2024/01/06 01:44:08;;;;;;;;;;;;;;;15.91;49.41;100726.19;5076281;28;1159;-72
2024/01/06 01:46:33;;;;;;;;;;;;;;;15.81;49.13;100728.91;5078452;28;1112;-73
2024/01/06 01:49:00;;;;;;;;;;;;;;;17.36;48.94;100725.09;5058236;28;1005;-71
2024/01/06 01:51:29;;;;;;;;;;;;;;;17.01;49.65;100718.59;5067056;28;1051;-71
2024/01/06 01:53:54;;;;;;;;;;;;;;;16.43;49.83;100722.44;5077034;28;1076;-71
2024/01/06 01:56:20;;;;;;;;;;;;;;;16.07;49.02;100719.66;5060278;28;1099;-72
2024/01/06 01:58:46;;;;;;;;;;;;;;;16.32;50.06;100709.81;5059276;28;1068;-72
2024/01/06 02:01:12;;;;;;;;;;;;;;;17.84;48.38;100705.34;5051962;28;1230;-72
2024/01/06 02:03:38;;;;;;;;;;;;;;;16.60;50.06;100707.63;5060391;28;1905;-70
2024/01/06 02:06:04;;;;;;;;;;;;;;;16.21;49.83;100708.16;5060078;28;1372;-71
2024/01/06 02:08:29;;;;;;;;;;;;;;;15.98;48.98;100707.56;5077275;28;1300;-70
2024/01/06 02:10:56;;;;;;;;;;;;;;;15.90;48.32;100702.63;5076470;28;1060;-70
2024/01/06 02:13:22;;;;;;;;;;;;;;;16.73;49.60;100712.56;5075899;28;1071;-71
2024/01/06 02:15:47;;;;;;;;;;;;;;;16.81;50.18;100707.59;5078141;28;1162;-70
2024/01/06 02:18:13;;;;;;;;;;;;;;;16.18;49.81;100698.53;5077919;28;1066;-70
2024/01/06 02:20:38;;;;;;;;;;;;;;;16.05;49.06;100705.38;5077753;28;1218;-71
2024/01/06 02:23:04;;;;;;;;;;;;;;;15.83;48.19;100694.63;5057207;28;1969;-69
2024/01/06 02:25:30;;;;;;;;;;;;;;;15.78;47.74;100702.00;5068472;28;1103;-71
2024/01/06 02:27:55;;;;;;;;;;;;;;;16.36;49.24;100699.94;5073249;28;1079;-72
2024/01/06 02:30:21;;;;;;;;;;;;;;;17.07;49.71;100687.25;5068451;28;1044;-74
2024/01/06 02:32:46;;;;;;;;;;;;;;;16.21;50.12;100691.69;5077632;28;1446;-72
2024/01/06 02:35:12;;;;;;;;;;;;;;;16.02;49.18;100689.47;5077074;28;1099;-72
2024/01/06 02:37:37;;;;;;;;;;;;;;;15.80;48.60;100681.47;5077282;28;1160;-71
2024/01/06 02:40:03;;;;;;;;;;;;;;;16.13;49.10;100671.13;5077326;28;1055;-70
2024/01/06 02:42:29;;;;;;;;;;;;;;;17.52;48.84;100672.81;5077206;28;1909;-69
2024/01/06 02:44:54;;;;;;;;;;;;;;;16.60;50.09;100671.94;5058616;28;1156;-72
2024/01/06 02:47:20;;;;;;;;;;;;;;;16.17;49.41;100674.97;5074414;28;1036;-68
2024/01/06 02:49:46;;;;;;;;;;;;;;;15.92;49.03;100683.94;5067460;28;1120;-66
2024/01/06 02:52:11;;;;;;;;;;;;;;;17.14;49.55;100678.72;5076417;28;1116;-64
2024/01/06 02:54:37;;;;;;;;;;;;;;;16.31;50.41;100668.91;5076520;28;1063;-67
2024/01/06 02:57:02;;;;;;;;;;;;;;;15.99;49.69;100678.22;5076795;28;1063;-65
2024/01/06 02:59:28;;;;;;;;;;;;;;;15.80;48.74;100680.66;5073641;28;1149;-65
2024/01/06 03:01:53;;;;;;;;;;;;;;;17.00;49.56;100677.63;5073305;28;1968;-63
2024/01/06 03:04:19;;;;;;;;;;;;;;;16.45;50.16;100675.50;5076559;28;1067;-68
2024/01/06 03:06:46;;;;;;;;;;;;;;;16.11;49.55;100676.03;5076792;28;1192;-67
2024/01/06 03:09:11;;;;;;;;;;;;;;;15.95;48.59;100694.41;5075730;28;1103;-66
2024/01/06 03:11:37;;;;;;;;;;;;;;;16.43;49.04;100685.94;5075306;28;1098;-66
2024/01/06 03:14:03;;;;;;;;;;;;;;;17.21;48.90;100676.50;5076647;28;1063;-66
2024/01/06 03:16:29;;;;;;;;;;;;;;;16.29;49.80;100669.19;5076353;28;1146;-65
2024/01/06 03:18:54;;;;;;;;;;;;;;;16.11;49.01;100669.75;5075181;28;1092;-64
2024/01/06 03:21:20;;;;;;;;;;;;;;;16.71;49.56;100667.25;5076466;28;1348;-65
2024/01/06 03:23:46;;;;;;;;;;;;;;;17.12;49.40;100655.38;5075923;28;1977;-65
2024/01/06 03:26:11;;;;;;;;;;;;;;;16.42;49.74;100665.91;5075666;28;1340;-65
2024/01/06 03:28:37;;;;;;;;;;;;;;;16.02;49.27;100659.31;5075577;28;1351;-67
2024/01/06 03:31:03;;;;;;;;;;;;;;;17.48;49.04;100646.97;5063110;28;1111;-69
2024/01/06 03:33:28;;;;;;;;;;;;;;;16.68;49.85;100649.41;5065020;28;1155;-68
2024/01/06 03:35:54;;;;;;;;;;;;;;;16.25;49.37;100637.91;5069111;28;1428;-65
2024/01/06 03:38:20;;;;;;;;;;;;;;;16.25;49.25;100643.41;5068264;28;1301;-65
2024/01/06 03:40:45;;;;;;;;;;;;;;;17.81;48.41;100647.31;5074172;28;1292;-64
2024/01/06 03:43:11;;;;;;;;;;;;;;;16.65;49.84;100630.75;5075105;28;1902;-65
2024/01/06 03:45:36;;;;;;;;;;;;;;;16.27;49.35;100637.63;5074744;28;1391;-66
2024/01/06 03:48:02;;;;;;;;;;;;;;;16.03;48.90;100630.78;5071545;28;1359;-64
2024/01/06 03:50:27;;;;;;;;;;;;;;;15.95;47.91;100633.22;5073691;28;1309;-70
2024/01/06 03:52:53;;;;;;;;;;;;;;;15.76;47.53;100636.47;5076003;28;1066;-70
2024/01/06 03:55:19;;;;;;;;;;;;;;;17.09;49.25;100638.31;5075626;28;1019;-69
2024/01/06 03:57:44;;;;;;;;;;;;;;;16.48;49.85;100643.94;5076031;28;1059;-70
2024/01/06 04:00:10;;;;;;;;;;;;;;;16.08;49.14;100640.94;5075863;28;1067;-69
2024/01/06 04:02:35;;;;;;;;;;;;;;;15.98;48.50;100629.97;5076195;28;1897;-69
2024/01/06 04:05:01;;;;;;;;;;;;;;;15.78;47.77;100626.06;5075653;28;1047;-68
2024/01/06 04:07:27;;;;;;;;;;;;;;;15.73;47.22;100626.88;5075689;28;1139;-69
2024/01/06 04:09:52;;;;;;;;;;;;;;;16.49;48.72;100629.94;5075416;28;1122;-68
2024/01/06 04:12:18;;;;;;;;;;;;;;;16.95;49.24;100620.00;5070551;28;1098;-68
2024/01/06 04:14:43;;;;;;;;;;;;;;;16.20;49.85;100624.19;5071625;28;1171;-66
2024/01/06 04:17:09;;;;;;;;;;;;;;;16.23;50.21;100619.00;5075909;28;1155;-68
2024/01/06 04:19:34;;;;;;;;;;;;;;;17.19;49.17;100617.41;5075563;28;1150;-62
2024/01/06 04:22:00;;;;;;;;;;;;;;;16.21;50.09;100623.91;5066753;28;1898;-64
2024/01/06 04:24:26;;;;;;;;;;;;;;;15.98;49.14;100619.00;5052142;28;1210;-64
2024/01/06 04:26:51;;;;;;;;;;;;;;;15.90;48.48;100621.16;5076081;28;1233;-64
2024/01/06 04:29:17;;;;;;;;;;;;;;;16.63;49.62;100621.94;5075240;28;1230;-69
2024/01/06 04:31:42;;;;;;;;;;;;;;;16.68;49.78;100612.91;5072294;28;1336;-66
2024/01/06 04:34:08;;;;;;;;;;;;;;;16.14;49.57;100619.81;5075863;28;1135;-66
2024/01/06 04:36:34;;;;;;;;;;;;;;;15.95;48.73;100611.28;5069910;28;1048;-65
2024/01/06 04:38:59;;;;;;;;;;;;;;;15.86;47.95;100613.75;5075700;28;1063;-66
2024/01/06 04:41:25;;;;;;;;;;;;;;;17.19;49.24;100625.66;5075788;28;1222;-67
2024/01/06 04:43:50;;;;;;;;;;;;;;;16.61;50.01;100618.66;5075283;28;1980;-65
2024/01/06 04:46:16;;;;;;;;;;;;;;;16.20;49.65;100624.19;5074840;28;1094;-58
2024/01/06 04:48:43;;;;;;;;;;;;;;;16.61;50.10;100629.66;5060898;28;1078;-61
2024/01/06 04:51:10;;;;;;;;;;;;;;;17.04;49.54;100627.38;5062523;28;1361;-57
2024/01/06 04:53:36;;;;;;;;;;;;;;;16.37;49.87;100626.69;5074558;28;1091;-57
2024/01/06 04:56:01;;;;;;;;;;;;;;;16.19;48.84;100623.38;5066733;28;1263;-60
2024/01/06 04:58:27;;;;;;;;;;;;;;;15.96;48.25;100637.63;5067194;28;1024;-54
2024/01/06 05:00:53;;;;;;;;;;;;;;;15.88;47.44;100628.03;5069931;28;998;-57
2024/01/06 05:03:18;;;;;;;;;;;;;;;15.95;48.59;100639.56;5037684;28;1958;-56
2024/01/06 05:05:44;;;;;;;;;;;;;;;17.42;49.20;100644.25;5068591;28;1103;-58
2024/01/06 05:08:09;;;;;;;;;;;;;;;16.53;50.50;100647.50;5065520;28;1005;-57
2024/01/06 05:10:35;;;;;;;;;;;;;;;16.14;49.69;100647.25;5063227;28;2500;-58
2024/01/06 05:13:01;;;;;;;;;;;;;;;15.95;48.81;100644.19;5078211;28;1107;-63
2024/01/06 05:15:26;;;;;;;;;;;;;;;15.83;48.15;100645.28;5065099;28;1201;-59
2024/01/06 05:17:52;;;;;;;;;;;;;;;15.77;47.41;100643.59;5077274;28;1110;-59
2024/01/06 05:20:17;;;;;;;;;;;;;;;16.47;48.79;100647.81;5066073;28;908;-59
2024/01/06 05:22:43;;;;;;;;;;;;;;;17.53;48.87;100655.19;5078115;28;1976;-60
2024/01/06 05:25:09;;;;;;;;;;;;;;;17.01;49.67;100655.41;5078357;28;1096;-60
2024/01/06 05:27:35;;;;;;;;;;;;;;;16.49;50.87;100648.34;5077237;28;1070;-61
2024/01/06 05:30:00;;;;;;;;;;;;;;;16.16;51.84;100650.53;5066184;28;1043;-63
2024/01/06 05:32:26;;;;;;;;;;;;;;;15.91;52.04;100652.97;5076450;28;1110;-63
2024/01/06 05:34:51;;;;;;;;;;;;;;;15.83;52.15;100666.41;5066807;28;1051;-62
2024/01/06 05:37:17;;;;;;;;;;;;;;;16.46;50.87;100671.66;5071208;28;1078;-62
2024/01/06 05:39:43;;;;;;;;;;;;;;;17.73;47.35;100666.06;5077559;28;2280;-62
2024/01/06 05:42:09;;;;;;;;;;;;;;;16.68;49.72;100662.31;5064821;28;1966;-62
2024/01/06 05:44:37;;;;;;;;;;;;;;;16.20;51.00;100668.09;5078107;28;1087;-62
2024/01/06 05:47:03;;;;;;;;;;;;;;;15.92;51.72;100664.75;5076637;28;1039;-62
2024/01/06 05:49:29;;;;;;;;;;;;;;;16.08;51.58;100660.13;5066506;28;858;-62
2024/01/06 05:51:54;;;;;;;;;;;;;;;17.65;47.48;100652.91;5077861;28;988;-63
2024/01/06 05:54:20;;;;;;;;;;;;;;;17.04;48.87;100665.84;5069881;28;1153;-62
2024/01/06 05:56:46;;;;;;;;;;;;;;;16.35;50.45;100659.84;5072023;28;1071;-62
2024/01/06 05:59:11;;;;;;;;;;;;;;;16.06;51.24;100654.09;5077941;28;1162;-62
2024/01/06 06:01:37;;;;;;;;;;;;;;;16.62;50.04;100661.50;5069336;28;1118;-62
2024/01/06 06:04:03;;;;;;;;;;;;;;;17.87;46.73;100658.00;5069818;28;1913;-62
2024/01/06 06:06:28;;;;;;;;;;;;;;;16.76;49.33;100662.56;5070859;28;1113;-62
2024/01/06 06:08:54;;;;;;;;;;;;;;;16.31;50.74;100653.25;5065675;28;1153;-64
2024/01/06 06:11:19;;;;;;;;;;;;;;;16.07;51.00;100656.59;5064415;28;2311;-61
2024/01/06 06:13:45;;;;;;;;;;;;;;;16.40;50.57;100657.13;5075709;28;845;-62
2024/01/06 06:16:13;;;;;;;;;;;;;;;17.78;47.01;100663.31;5062494;28;1276;-62
2024/01/06 06:18:39;;;;;;;;;;;;;;;16.80;49.36;100657.34;5057793;28;1106;-62
2024/01/06 06:21:06;;;;;;;;;;;;;;;16.28;50.56;100650.25;5058534;28;1114;-62
2024/01/06 06:23:31;;;;;;;;;;;;;;;16.06;51.23;100654.91;5069308;28;1909;-61
2024/01/06 06:25:57;;;;;;;;;;;;;;;17.49;47.88;100654.09;5062217;28;1052;-62
2024/01/06 06:28:23;;;;;;;;;;;;;;;17.18;48.33;100651.47;5077226;28;1012;-62
2024/01/06 06:30:48;;;;;;;;;;;;;;;16.51;50.05;100657.09;5058057;28;1040;-62
2024/01/06 06:33:14;;;;;;;;;;;;;;;16.20;50.69;100657.09;5065122;28;1212;-62
2024/01/06 06:35:40;;;;;;;;;;;;;;;15.94;51.63;100643.38;5076604;28;1123;-62
2024/01/06 06:38:06;;;;;;;;;;;;;;;17.36;48.20;100659.13;5073672;28;860;-62
2024/01/06 06:40:31;;;;;;;;;;;;;;;17.21;48.32;100650.94;5069169;28;2432;-62
2024/01/06 06:42:57;;;;;;;;;;;;;;;16.42;50.17;100643.13;5064083;28;1967;-59
2024/01/06 06:45:22;;;;;;;;;;;;;;;16.20;51.02;100637.91;5076894;28;1094;-59
2024/01/06 06:47:49;;;;;;;;;;;;;;;16.01;51.32;100649.44;5076818;28;1055;-60
2024/01/06 06:50:15;;;;;;;;;;;;;;;16.38;50.54;100656.59;5065650;28;1066;-59
2024/01/06 06:52:42;;;;;;;;;;;;;;;17.80;47.24;100654.75;5076491;28;1170;-59
2024/01/06 06:55:07;;;;;;;;;;;;;;;16.80;49.23;100659.25;5076015;28;1500;-58
2024/01/06 06:57:33;;;;;;;;;;;;;;;16.24;51.00;100649.97;5076924;28;1046;-63
2024/01/06 07:00:00;;;;;;;;;;;;;;;16.01;51.41;100654.91;5075363;28;1083;-62
2024/01/06 07:02:25;;;;;;;;;;;;;;;16.83;49.45;100656.78;5060422;28;1984;-63
2024/01/06 07:04:51;;;;;;;;;;;;;;;17.56;47.31;100652.69;5071250;28;1091;-56
2024/01/06 07:07:17;;;;;;;;;;;;;;;16.61;49.98;100646.13;5075933;28;1055;-60
2024/01/06 07:09:42;;;;;;;;;;;;;;;16.20;50.90;100646.97;5061427;28;1819;-57
2024/01/06 07:12:08;;;;;;;;;;;;;;;16.69;49.91;100645.56;5056365;28;1016;-61
2024/01/06 07:14:33;;;;;;;;;;;;;;;17.60;47.28;100639.22;5070694;28;1162;-57
2024/01/06 07:16:59;;;;;;;;;;;;;;;16.64;50.02;100639.25;5068788;28;1100;-57
2024/01/06 07:19:24;;;;;;;;;;;;;;;16.26;50.84;100634.09;5069967;28;988;-57
2024/01/06 07:21:50;;;;;;;;;;;;;;;16.00;51.49;100634.06;5055996;28;1984;-57
2024/01/06 07:24:15;;;;;;;;;;;;;;;17.43;48.27;100629.41;5069771;28;1024;-57
2024/01/06 07:26:41;;;;;;;;;;;;;;;17.08;48.71;100631.22;5068462;28;849;-58
2024/01/06 07:29:08;;;;;;;;;;;;;;;16.46;50.31;100632.41;5062330;28;1066;-58
2024/01/06 07:31:33;;;;;;;;;;;;;;;16.10;51.16;100629.69;5075491;28;1353;-57
2024/01/06 07:33:59;;;;;;;;;;;;;;;16.24;51.00;100634.34;5075691;28;1518;-58
2024/01/06 07:36:25;;;;;;;;;;;;;;;17.76;47.43;100627.00;5074538;28;1308;-57
2024/01/06 07:38:51;;;;;;;;;;;;;;;16.86;49.16;100631.53;5065468;28;1064;-59
2024/01/06 07:41:17;;;;;;;;;;;;;;;16.30;50.83;100632.44;5061946;28;2385;-58
2024/01/06 07:43:43;;;;;;;;;;;;;;;16.10;51.20;100627.75;5066029;28;1913;-57
2024/01/06 07:46:09;;;;;;;;;;;;;;;15.86;52.05;100627.47;5075661;28;1058;-58
2024/01/06 07:48:35;;;;;;;;;;;;;;;17.26;48.77;100626.19;5075758;28;1147;-58
2024/01/06 07:51:01;;;;;;;;;;;;;;;17.17;48.51;100619.63;5072918;28;1434;-57
2024/01/06 07:53:27;;;;;;;;;;;;;;;16.42;50.39;100635.72;5075433;28;1031;-57
2024/01/06 07:55:52;;;;;;;;;;;;;;;16.12;51.33;100624.72;5059335;28;1222;-57
2024/01/06 07:58:18;;;;;;;;;;;;;;;15.87;52.07;100615.41;5055390;28;1055;-58
2024/01/06 08:00:43;;;;;;;;;;;;;;;16.50;50.60;100617.06;5069184;28;1187;-58
2024/01/06 08:03:11;;;;;;;;;;;;;;;17.62;47.50;100617.75;5064056;28;1901;-57
2024/01/06 08:05:37;;;;;;;;;;;;;;;16.56;50.21;100615.94;5062243;28;1015;-58
2024/01/06 08:08:04;;;;;;;;;;;;;;;16.16;51.36;100621.19;5075543;28;1126;-58
2024/01/06 08:10:29;;;;;;;;;;;;;;;15.94;51.75;100618.72;5071927;28;2234;-58
2024/01/06 08:12:55;;;;;;;;;;;;;;;17.18;48.85;100605.63;5075251;28;1239;-57
2024/01/06 08:15:20;;;;;;;;;;;;;;;17.15;48.76;100611.66;5069847;28;1198;-57
2024/01/06 08:17:46;;;;;;;;;;;;;;;16.37;50.64;100622.00;5066318;28;1371;-60
2024/01/06 08:20:12;;;;;;;;;;;;;;;16.10;51.50;100618.72;5075567;28;1300;-64
2024/01/06 08:22:38;;;;;;;;;;;;;;;16.48;50.96;100605.50;5060154;28;1971;-61
2024/01/06 08:25:06;;;;;;;;;;;;;;;17.83;47.22;100610.19;5066628;28;1109;-62
2024/01/06 08:27:31;;;;;;;;;;;;;;;16.71;49.94;100604.91;5068417;28;892;-62
2024/01/06 08:29:57;;;;;;;;;;;;;;;16.30;50.90;100604.16;5064601;28;1107;-62
2024/01/06 08:32:22;;;;;;;;;;;;;;;16.07;51.40;100601.72;5073097;28;988;-60
2024/01/06 08:34:48;;;;;;;;;;;;;;;16.28;51.50;100601.69;5064504;28;1116;-60
2024/01/06 08:37:14;;;;;;;;;;;;;;;17.76;47.33;100607.75;5071012;28;1388;-60
2024/01/06 08:39:39;;;;;;;;;;;;;;;16.87;49.50;100594.72;5072202;28;2522;-60
2024/01/06 08:42:05;;;;;;;;;;;;;;;16.31;51.02;100587.41;5066550;28;1969;-60
2024/01/06 08:44:31;;;;;;;;;;;;;;;16.02;51.81;100578.94;5076042;28;1110;-59
2024/01/06 08:46:56;;;;;;;;;;;;;;;16.07;52.00;100585.25;5079440;28;1038;-60
2024/01/06 08:49:23;;;;;;;;;;;;;;;17.67;47.84;100587.47;5073987;28;1222;-61
2024/01/06 08:51:48;;;;;;;;;;;;;;;16.77;49.70;100583.75;5078499;28;1442;-61
2024/01/06 08:54:14;;;;;;;;;;;;;;;16.25;51.08;100577.56;5073941;28;1141;-59
2024/01/06 08:56:39;;;;;;;;;;;;;;;16.02;51.98;100582.50;5070936;28;992;-58
2024/01/06 08:59:05;;;;;;;;;;;;;;;15.86;52.42;100567.16;5078440;28;1071;-59
2024/01/06 09:01:31;;;;;;;;;;;;;;;17.49;48.18;100561.47;5077570;28;1231;-60
2024/01/06 09:03:57;;;;;;;;;;;;;;;17.16;48.84;100552.03;5073399;28;1979;-58
2024/01/06 09:06:23;;;;;;;;;;;;;;;16.49;50.68;100552.28;5078245;28;1246;-60
2024/01/06 09:08:48;;;;;;;;;;;;;;;16.11;51.48;100560.03;5078354;28;1101;-60
2024/01/06 09:11:14;;;;;;;;;;;;;;;16.00;51.97;100545.47;5046723;28;2352;-59
2024/01/06 09:13:39;;;;;;;;;;;;;;;16.54;50.99;100547.59;5069008;28;1075;-61
2024/01/06 09:16:05;;;;;;;;;;;;;;;17.80;47.65;100539.25;5065793;28;1340;-60
2024/01/06 09:18:31;;;;;;;;;;;;;;;16.86;49.82;100532.66;5070473;28;1073;-59
2024/01/06 09:20:57;;;;;;;;;;;;;;;16.29;51.28;100540.25;5076068;28;1206;-64
2024/01/06 09:23:22;;;;;;;;;;;;;;;16.01;51.94;100539.72;5078263;28;1972;-64
2024/01/06 09:25:52;;;;;;;;;;;;;;;16.00;52.30;100540.81;5060044;28;1012;-64
2024/01/06 09:28:17;;;;;;;;;;;;;;;17.52;48.37;100518.84;5069594;28;903;-65
2024/01/06 09:30:43;;;;;;;;;;;;;;;17.04;49.11;100517.50;5077825;28;1023;-63
2024/01/06 09:33:09;;;;;;;;;;;;;;;16.47;50.86;100507.81;5078477;28;1127;-62
2024/01/06 09:35:34;;;;;;;;;;;;;;;16.14;51.71;100504.59;5077247;28;1180;-63
2024/01/06 09:38:00;;;;;;;;;;;;;;;16.28;51.47;100507.59;5076028;28;1435;-66
2024/01/06 09:40:26;;;;;;;;;;;;;;;17.73;47.68;100506.56;5070877;28;2217;-64
2024/01/06 09:42:51;;;;;;;;;;;;;;;16.68;50.43;100498.41;5074290;28;1981;-65
2024/01/06 09:45:17;;;;;;;;;;;;;;;16.23;51.43;100491.97;5077862;28;1093;-61
2024/01/06 09:47:43;;;;;;;;;;;;;;;16.06;52.08;100482.13;5047016;28;1174;-65
2024/01/06 09:50:09;;;;;;;;;;;;;;;15.92;52.42;100472.81;5060375;28;1059;-65
2024/01/06 09:52:43;;;;;;;;;;;;;;;16.80;50.18;100473.34;5072072;28;929;-66
2024/01/06 09:55:11;;;;;;;;;;;;;;;17.53;48.11;100480.06;5068080;28;1138;-65
2024/01/06 09:57:37;;;;;;;;;;;;;;;16.56;50.60;100473.19;5064350;28;1102;-65
2024/01/06 10:00:04;;;;;;;;;;;;;;;16.19;51.54;100463.44;5077547;28;1104;-65
2024/01/06 10:02:37;;;;;;;;;;;;;;;16.01;52.01;100468.41;5062421;28;1983;-63
2024/01/06 10:05:03;;;;;;;;;;;;;;;15.97;52.45;100461.03;5066179;28;1067;-63
2024/01/06 10:07:29;;;;;;;;;;;;;;;17.55;48.32;100455.03;5070826;28;1107;-63
2024/01/06 10:09:54;;;;;;;;;;;;;;;16.91;49.77;100458.50;5066341;28;1820;-64
2024/01/06 10:12:24;;;;;;;;;;;;;;;16.37;51.55;100451.88;5066207;28;1138;-65
2024/01/06 10:14:50;;;;;;;;;;;;;;;16.06;52.19;100451.97;5070659;28;1083;-62
2024/01/06 10:17:16;;;;;;;;;;;;;;;15.94;52.52;100454.16;5068326;28;1113;-65
2024/01/06 10:19:41;;;;;;;;;;;;;;;16.82;50.48;100448.38;5077382;28;1043;-64
2024/01/06 10:22:07;;;;;;;;;;;;;;;17.62;48.33;100437.09;5057957;28;1977;-66
2024/01/06 10:24:32;;;;;;;;;;;;;;;16.66;50.80;100432.00;5073699;28;901;-64
2024/01/06 10:26:58;;;;;;;;;;;;;;;16.23;51.66;100428.88;5063492;28;1202;-63
2024/01/06 10:29:24;;;;;;;;;;;;;;;16.01;52.56;100424.53;5066980;28;1058;-64
2024/01/06 10:31:50;;;;;;;;;;;;;;;16.06;52.38;100421.78;5074091;28;1114;-67
2024/01/06 10:34:16;;;;;;;;;;;;;;;17.63;48.33;100418.69;5065865;28;970;-60
2024/01/06 10:36:41;;;;;;;;;;;;;;;16.80;50.13;100417.63;5074191;28;1116;-63
2024/01/06 10:39:07;;;;;;;;;;;;;;;16.29;51.60;100414.03;5077065;28;1031;-64
2024/01/06 10:41:32;;;;;;;;;;;;;;;16.03;52.53;100405.91;5075663;28;2341;-63
2024/01/06 10:44:01;;;;;;;;;;;;;;;15.90;52.49;100407.28;5048579;28;1973;-63
2024/01/06 10:46:26;;;;;;;;;;;;;;;17.13;49.72;100409.75;5074356;28;1091;-63
2024/01/06 10:48:52;;;;;;;;;;;;;;;17.52;48.56;100406.94;5059422;28;1060;-64
2024/01/06 10:51:17;;;;;;;;;;;;;;;16.61;50.68;100399.06;5076421;28;1039;-64
2024/01/06 10:53:43;;;;;;;;;;;;;;;16.24;51.95;100400.31;5066250;28;1099;-64
2024/01/06 10:56:11;;;;;;;;;;;;;;;16.02;52.37;100398.75;5073582;28;1079;-63
2024/01/06 10:58:42;;;;;;;;;;;;;;;15.86;52.83;100399.91;5076549;28;1150;-63
2024/01/06 11:01:14;;;;;;;;;;;;;;;17.44;49.10;100393.81;5076602;28;1031;-65
2024/01/06 11:03:40;;;;;;;;;;;;;;;17.02;49.85;100392.53;5070712;28;1966;-65
2024/01/06 11:06:07;;;;;;;;;;;;;;;16.40;51.61;100393.66;5056460;28;1147;-66
2024/01/06 11:08:33;;;;;;;;;;;;;;;16.20;51.99;100388.25;5069114;28;1084;-65
2024/01/06 11:10:59;;;;;;;;;;;;;;;15.91;52.62;100376.03;5044094;28;2412;-65
2024/01/06 11:13:26;;;;;;;;;;;;;;;16.52;51.47;100385.13;5069294;28;1073;-64
2024/01/06 11:15:54;;;;;;;;;;;;;;;17.81;47.91;100380.53;5069562;28;1095;-65
2024/01/06 11:18:37;;;;;;;;;;;;;;;16.72;50.67;100378.69;5061470;28;1008;-65
2024/01/06 11:21:28;;;;;;;;;;;;;;;16.22;52.00;100373.16;5062810;28;1134;-65
2024/01/06 11:24:09;;;;;;;;;;;;;;;16.01;52.40;100371.63;5075855;28;1910;-66
2024/01/06 11:26:38;;;;;;;;;;;;;;;15.82;53.13;100371.38;5063041;28;1095;-66
2024/01/06 11:29:03;;;;;;;;;;;;;;;17.22;49.59;100366.81;5041278;28;862;-66
2024/01/06 11:31:31;;;;;;;;;;;;;;;17.31;49.23;100365.09;5063800;28;1017;-66
2024/01/06 11:33:57;;;;;;;;;;;;;;;16.50;51.32;100364.53;5062780;28;1115;-66
2024/01/06 11:36:22;;;;;;;;;;;;;;;16.11;52.35;100357.03;5051111;28;1481;-68
2024/01/06 11:38:50;;;;;;;;;;;;;;;15.89;53.02;100356.31;5068689;28;1168;-65
2024/01/06 11:41:34;;;;;;;;;;;;;;;15.74;53.24;100359.06;5065438;28;2395;-66
2024/01/06 11:44:00;;;;;;;;;;;;;;;16.99;50.33;100360.13;5057957;28;1909;-67
2024/01/06 11:46:26;;;;;;;;;;;;;;;17.65;48.13;100360.66;5058155;28;1162;-63
2024/01/06 11:48:53;;;;;;;;;;;;;;;16.59;50.94;100360.09;5057211;28;1297;-64
2024/01/06 11:51:18;;;;;;;;;;;;;;;16.20;52.04;100355.34;5057679;28;1230;-64
2024/01/06 11:53:44;;;;;;;;;;;;;;;15.98;52.61;100347.50;5075322;28;1363;-64
2024/01/06 11:56:10;;;;;;;;;;;;;;;16.32;52.19;100344.06;5057905;28;1422;-65
2024/01/06 11:58:38;;;;;;;;;;;;;;;17.76;48.29;100343.72;5075587;28;1605;-65
2024/01/06 12:01:04;;;;;;;;;;;;;;;16.91;50.32;100339.59;5075158;28;1496;-64
2024/01/06 12:03:30;;;;;;;;;;;;;;;16.37;51.69;100344.84;5055403;28;1910;-65
2024/01/06 12:06:00;;;;;;;;;;;;;;;16.14;52.51;100335.34;5056090;28;1116;-64
2024/01/06 12:08:27;;;;;;;;;;;;;;;15.93;53.07;100334.59;5070517;28;1294;-63
2024/01/06 12:11:01;;;;;;;;;;;;;;;16.75;51.21;100344.34;5058177;28;2486;-64
2024/01/06 12:13:26;;;;;;;;;;;;;;;17.55;48.86;100345.06;5074416;28;1344;-68
2024/01/06 12:15:52;;;;;;;;;;;;;;;16.63;50.98;100341.94;5075003;28;1233;-67
2024/01/06 12:18:17;;;;;;;;;;;;;;;16.23;52.20;100335.59;5072329;28;1345;-67
2024/01/06 12:20:45;;;;;;;;;;;;;;;15.98;52.99;100342.81;5072969;28;1197;-68
2024/01/06 12:23:10;;;;;;;;;;;;;;;17.45;49.35;100338.56;5067961;28;1914;-68
2024/01/06 12:25:36;;;;;;;;;;;;;;;17.00;50.00;100331.53;5059728;28;1040;-67
2024/01/06 12:28:02;;;;;;;;;;;;;;;16.39;51.67;100337.13;5067770;28;1412;-69
2024/01/06 12:30:27;;;;;;;;;;;;;;;16.12;52.67;100331.22;5073086;28;1068;-67
2024/01/06 12:32:53;;;;;;;;;;;;;;;15.91;53.04;100325.84;5059700;28;1425;-67
2024/01/06 12:35:19;;;;;;;;;;;;;;;16.08;52.86;100320.84;5077707;28;1096;-67
2024/01/06 12:37:45;;;;;;;;;;;;;;;17.60;49.04;100323.03;5078972;28;1114;-67
2024/01/06 12:40:14;;;;;;;;;;;;;;;16.98;50.42;100320.84;5078739;28;2316;-67
2024/01/06 12:42:40;;;;;;;;;;;;;;;16.39;52.02;100315.19;5079319;28;1898;-67